EZY2521 EGGW-EHAM
Flight info
| Callsign | EZY2521 |
|---|---|
| Flight time | 0h 38m |
| Altitude | 28000 |
| Route | MATCH Q295 BRAIN M197 REDFA |
| Aircraft | A320/M-SDE3FGHIRWY/LB1 |
Departure
| Time | 2026-04-30 18:11 |
|---|---|
| Airport | London Luton Airport (EGGW) |
Arrival
| Time | 2026-04-30 18:50 |
|---|---|
| Airport | Amsterdam Airport Schiphol (EHAM) |
| Time | Latitude | Longitude | Altitude | Speed | Heading |
|---|---|---|---|---|---|
| 2026-04-30 17:53 | 51.87888 | -0.37925 | 524 ft | 0 kts | 73° |
| 2026-04-30 18:02 | 51.87888 | -0.37926 | 523 ft | 0 kts | 73° |
| 2026-04-30 18:03 | 51.87887 | -0.37931 | 523 ft | 3 kts | 73° |
| 2026-04-30 18:04 | 51.87889 | -0.38014 | 523 ft | 3 kts | 174° |
| 2026-04-30 18:05 | 51.87907 | -0.38017 | 523 ft | 0 kts | 174° |
| 2026-04-30 18:07 | 51.87826 | -0.37967 | 524 ft | 11 kts | 134° |
| 2026-04-30 18:08 | 51.87674 | -0.37509 | 521 ft | 18 kts | 136° |
| 2026-04-30 18:09 | 51.87432 | -0.37952 | 524 ft | 14 kts | 252° |
| 2026-04-30 18:10 | 51.87215 | -0.38315 | 521 ft | 2 kts | 146° |
| 2026-04-30 18:11 | 51.87400 | -0.37222 | 521 ft | 120 kts | 74° |
| 2026-04-30 18:11 | 51.88177 | -0.32584 | 2515 ft | 162 kts | 81° |
| 2026-04-30 18:12 | 51.89259 | -0.26266 | 4201 ft | 232 kts | 80° |
| 2026-04-30 18:13 | 51.88988 | -0.21069 | 5962 ft | 243 kts | 131° |
| 2026-04-30 18:13 | 51.84370 | -0.17393 | 9183 ft | 252 kts | 157° |
| 2026-04-30 18:14 | 51.80966 | -0.15023 | 10727 ft | 285 kts | 155° |
| 2026-04-30 18:15 | 51.76136 | -0.09233 | 13467 ft | 307 kts | 118° |
| 2026-04-30 18:15 | 51.76076 | 0.01079 | 15954 ft | 328 kts | 84° |
| 2026-04-30 18:16 | 51.76669 | 0.08472 | 17553 ft | 336 kts | 86° |
| 2026-04-30 18:16 | 51.77217 | 0.16065 | 19061 ft | 345 kts | 86° |
| 2026-04-30 18:17 | 51.77511 | 0.19931 | 19773 ft | 348 kts | 85° |
| 2026-04-30 18:17 | 51.77818 | 0.23828 | 20508 ft | 352 kts | 85° |
| 2026-04-30 18:17 | 51.78457 | 0.31718 | 21954 ft | 357 kts | 86° |
| 2026-04-30 18:18 | 51.78778 | 0.35715 | 22671 ft | 360 kts | 86° |
| 2026-04-30 18:18 | 51.79102 | 0.39741 | 23373 ft | 363 kts | 86° |
| 2026-04-30 18:18 | 51.79428 | 0.43800 | 24017 ft | 366 kts | 86° |
| 2026-04-30 18:18 | 51.79756 | 0.47901 | 24586 ft | 369 kts | 86° |
| 2026-04-30 18:19 | 51.80083 | 0.52029 | 25154 ft | 372 kts | 86° |
| 2026-04-30 18:19 | 51.80407 | 0.56192 | 25721 ft | 375 kts | 86° |
| 2026-04-30 18:19 | 51.80733 | 0.60388 | 26287 ft | 378 kts | 86° |
| 2026-04-30 18:19 | 51.81071 | 0.64615 | 26837 ft | 382 kts | 84° |
| 2026-04-30 18:20 | 51.81652 | 0.68775 | 27361 ft | 387 kts | 79° |
| 2026-04-30 18:20 | 51.82309 | 0.73003 | 27893 ft | 390 kts | 79° |
| 2026-04-30 18:20 | 51.82971 | 0.77267 | 28180 ft | 392 kts | 79° |
| 2026-04-30 18:21 | 51.84332 | 0.85794 | 28235 ft | 393 kts | 78° |
| 2026-04-30 18:21 | 51.85107 | 0.90136 | 28237 ft | 410 kts | 77° |
| 2026-04-30 18:21 | 51.85945 | 0.94628 | 28236 ft | 423 kts | 76° |
| 2026-04-30 18:22 | 51.87681 | 1.03811 | 28232 ft | 428 kts | 76° |
| 2026-04-30 18:22 | 51.90243 | 1.17881 | 28236 ft | 447 kts | 77° |
| 2026-04-30 18:23 | 51.91981 | 1.27635 | 28239 ft | 452 kts | 77° |
| 2026-04-30 18:23 | 51.93722 | 1.37435 | 28242 ft | 453 kts | 77° |
| 2026-04-30 18:24 | 51.96337 | 1.52154 | 28242 ft | 453 kts | 76° |
| 2026-04-30 18:25 | 51.98080 | 1.61973 | 28246 ft | 453 kts | 76° |
| 2026-04-30 18:25 | 52.00545 | 1.76777 | 28244 ft | 453 kts | 78° |
| 2026-04-30 18:26 | 52.02796 | 1.91618 | 28246 ft | 453 kts | 78° |
| 2026-04-30 18:27 | 52.05052 | 2.06388 | 28246 ft | 436 kts | 78° |
| 2026-04-30 18:28 | 52.07227 | 2.20605 | 28250 ft | 430 kts | 78° |
| 2026-04-30 18:28 | 52.09430 | 2.34748 | 28254 ft | 432 kts | 72° |
| 2026-04-30 18:29 | 52.14314 | 2.52669 | 28258 ft | 433 kts | 68° |
| 2026-04-30 18:30 | 52.16759 | 2.61600 | 28003 ft | 425 kts | 68° |
| 2026-04-30 18:30 | 52.19124 | 2.70276 | 26782 ft | 414 kts | 68° |
| 2026-04-30 18:31 | 52.20284 | 2.74540 | 26158 ft | 409 kts | 68° |
| 2026-04-30 18:31 | 52.22562 | 2.82948 | 24936 ft | 401 kts | 68° |
| 2026-04-30 18:32 | 52.24789 | 2.91204 | 23747 ft | 394 kts | 68° |
| 2026-04-30 18:32 | 52.25873 | 2.95230 | 23087 ft | 391 kts | 69° |
| 2026-04-30 18:32 | 52.28035 | 3.03292 | 21836 ft | 384 kts | 69° |
| 2026-04-30 18:33 | 52.29098 | 3.07269 | 21247 ft | 381 kts | 69° |
| 2026-04-30 18:33 | 52.31201 | 3.15159 | 20121 ft | 376 kts | 69° |
| 2026-04-30 18:33 | 52.32240 | 3.19055 | 19576 ft | 373 kts | 69° |
| 2026-04-30 18:34 | 52.33274 | 3.22932 | 19057 ft | 370 kts | 69° |
| 2026-04-30 18:34 | 52.35311 | 3.30610 | 17983 ft | 365 kts | 69° |
| 2026-04-30 18:34 | 52.36313 | 3.34407 | 17456 ft | 362 kts | 70° |
| 2026-04-30 18:35 | 52.37306 | 3.38175 | 16934 ft | 359 kts | 70° |
| 2026-04-30 18:35 | 52.38286 | 3.41910 | 16454 ft | 356 kts | 70° |
| 2026-04-30 18:35 | 52.39259 | 3.45608 | 15971 ft | 353 kts | 70° |
| 2026-04-30 18:36 | 52.41186 | 3.52915 | 15025 ft | 346 kts | 70° |
| 2026-04-30 18:36 | 52.42133 | 3.56526 | 14558 ft | 343 kts | 70° |
| 2026-04-30 18:36 | 52.43992 | 3.63656 | 13584 ft | 337 kts | 70° |
| 2026-04-30 18:37 | 52.44910 | 3.67178 | 13067 ft | 334 kts | 70° |
| 2026-04-30 18:37 | 52.45820 | 3.70668 | 12569 ft | 331 kts | 70° |
| 2026-04-30 18:37 | 52.46718 | 3.74124 | 12063 ft | 328 kts | 70° |
| 2026-04-30 18:37 | 52.47608 | 3.77560 | 11600 ft | 325 kts | 70° |
| 2026-04-30 18:38 | 52.48473 | 3.80890 | 11471 ft | 311 kts | 71° |
| 2026-04-30 18:38 | 52.49308 | 3.84104 | 11229 ft | 302 kts | 71° |
| 2026-04-30 18:38 | 52.50011 | 3.87312 | 10841 ft | 295 kts | 82° |
| 2026-04-30 18:38 | 52.50056 | 3.90600 | 10448 ft | 287 kts | 102° |
| 2026-04-30 18:39 | 52.49515 | 3.93693 | 10233 ft | 276 kts | 110° |
| 2026-04-30 18:39 | 52.48934 | 3.96645 | 9981 ft | 269 kts | 110° |
| 2026-04-30 18:39 | 52.48364 | 3.99548 | 9616 ft | 266 kts | 110° |
| 2026-04-30 18:39 | 52.47800 | 4.02419 | 9211 ft | 264 kts | 110° |
| 2026-04-30 18:40 | 52.47167 | 4.05221 | 8805 ft | 260 kts | 121° |
| 2026-04-30 18:40 | 52.46073 | 4.07545 | 8396 ft | 257 kts | 131° |
| 2026-04-30 18:40 | 52.44874 | 4.09714 | 7988 ft | 256 kts | 132° |
| 2026-04-30 18:40 | 52.43673 | 4.11856 | 7578 ft | 254 kts | 133° |
| 2026-04-30 18:41 | 52.42481 | 4.13971 | 7323 ft | 251 kts | 133° |
| 2026-04-30 18:41 | 52.41290 | 4.16078 | 7291 ft | 252 kts | 133° |
| 2026-04-30 18:41 | 52.40108 | 4.18164 | 6966 ft | 249 kts | 133° |
| 2026-04-30 18:41 | 52.38930 | 4.20238 | 6531 ft | 248 kts | 133° |
| 2026-04-30 18:42 | 52.37759 | 4.22300 | 6110 ft | 246 kts | 133° |
| 2026-04-30 18:42 | 52.35516 | 4.26273 | 5473 ft | 234 kts | 133° |
| 2026-04-30 18:42 | 52.34418 | 4.28230 | 5081 ft | 233 kts | 133° |
| 2026-04-30 18:45 | 52.24056 | 4.46442 | 2931 ft | 212 kts | 133° |
| 2026-04-30 18:45 | 52.23023 | 4.48192 | 2529 ft | 211 kts | 132° |
| 2026-04-30 18:45 | 52.22193 | 4.50097 | 2204 ft | 204 kts | 108° |
| 2026-04-30 18:46 | 52.22017 | 4.52301 | 2105 ft | 196 kts | 95° |
| 2026-04-30 18:46 | 52.22004 | 4.54512 | 2021 ft | 195 kts | 91° |
| 2026-04-30 18:46 | 52.22329 | 4.56632 | 2002 ft | 191 kts | 68° |
| 2026-04-30 18:46 | 52.23006 | 4.58416 | 2018 ft | 177 kts | 64° |
| 2026-04-30 18:47 | 52.23649 | 4.60076 | 1917 ft | 171 kts | 64° |
| 2026-04-30 18:47 | 52.24274 | 4.61694 | 1728 ft | 166 kts | 64° |
| 2026-04-30 18:47 | 52.24881 | 4.63266 | 1519 ft | 163 kts | 65° |
| 2026-04-30 18:47 | 52.25485 | 4.64835 | 1311 ft | 164 kts | 64° |
| 2026-04-30 18:48 | 52.26075 | 4.66359 | 1108 ft | 153 kts | 64° |
| 2026-04-30 18:48 | 52.26630 | 4.67795 | 877 ft | 143 kts | 63° |
| 2026-04-30 18:48 | 52.27127 | 4.69072 | 662 ft | 126 kts | 63° |
| 2026-04-30 18:48 | 52.27581 | 4.70225 | 468 ft | 115 kts | 62° |
| 2026-04-30 18:49 | 52.28000 | 4.71329 | 303 ft | 111 kts | 63° |
| 2026-04-30 18:49 | 52.28418 | 4.72407 | 173 ft | 112 kts | 62° |
| 2026-04-30 18:49 | 52.28829 | 4.73494 | 54 ft | 111 kts | 62° |
| 2026-04-30 18:49 | 52.29210 | 4.74504 | 1 ft | 93 kts | 59° |
| 2026-04-30 18:50 | 52.29474 | 4.75188 | -3 ft | 63 kts | 56° |
| 2026-04-30 18:50 | 52.29696 | 4.75721 | -2 ft | 42 kts | 43° |
| 2026-04-30 18:50 | 52.29873 | 4.75881 | -1 ft | 14 kts | 27° |
| 2026-04-30 18:50 | 52.29911 | 4.75915 | -1 ft | 0 kts | 28° |
| 2026-04-30 18:51 | 52.29940 | 4.75940 | -1 ft | 12 kts | 28° |
| 2026-04-30 18:51 | 52.30008 | 4.76025 | -1 ft | 9 kts | 54° |
| 2026-04-30 18:51 | 52.30046 | 4.76129 | -1 ft | 9 kts | 58° |
| 2026-04-30 18:51 | 52.30072 | 4.76196 | -1 ft | 8 kts | 58° |
| 2026-04-30 18:52 | 52.30082 | 4.76221 | -1 ft | 0 kts | 58° |
| 2026-04-30 18:52 | 52.30094 | 4.76252 | -1 ft | 11 kts | 58° |
| 2026-04-30 18:52 | 52.30147 | 4.76390 | -1 ft | 16 kts | 57° |
| 2026-04-30 18:53 | 52.30204 | 4.76540 | -1 ft | 15 kts | 59° |
| 2026-04-30 18:53 | 52.30256 | 4.76671 | -1 ft | 15 kts | 56° |
| 2026-04-30 18:53 | 52.30311 | 4.76816 | -1 ft | 12 kts | 58° |
| 2026-04-30 18:53 | 52.30362 | 4.76949 | -1 ft | 15 kts | 56° |
| 2026-04-30 18:54 | 52.30425 | 4.77111 | -1 ft | 18 kts | 59° |
| 2026-04-30 18:54 | 52.30496 | 4.77301 | -1 ft | 20 kts | 58° |
| 2026-04-30 18:54 | 52.30563 | 4.77476 | -1 ft | 15 kts | 58° |
| 2026-04-30 18:54 | 52.30648 | 4.77585 | -1 ft | 17 kts | 8° |
| 2026-04-30 18:55 | 52.30778 | 4.77600 | -1 ft | 20 kts | 5° |
| 2026-04-30 18:55 | 52.31076 | 4.77627 | -1 ft | 18 kts | 1° |
| 2026-04-30 18:55 | 52.31185 | 4.77635 | -1 ft | 15 kts | 3° |
| 2026-04-30 18:56 | 52.31403 | 4.77654 | -1 ft | 16 kts | 357° |
| 2026-04-30 18:56 | 52.31502 | 4.77574 | -1 ft | 16 kts | 319° |
| 2026-04-30 18:56 | 52.31560 | 4.77463 | -1 ft | 13 kts | 303° |
| 2026-04-30 18:57 | 52.31572 | 4.77188 | -1 ft | 12 kts | 265° |
| 2026-04-30 18:57 | 52.31567 | 4.77041 | -1 ft | 18 kts | 266° |
| 2026-04-30 18:57 | 52.31557 | 4.76783 | -1 ft | 25 kts | 267° |
| 2026-04-30 18:58 | 52.31542 | 4.76399 | -1 ft | 15 kts | 266° |
| 2026-04-30 18:58 | 52.31537 | 4.76233 | -1 ft | 15 kts | 267° |
| 2026-04-30 18:58 | 52.31532 | 4.76069 | -1 ft | 14 kts | 266° |
| 2026-04-30 18:59 | 52.31520 | 4.75746 | -1 ft | 14 kts | 267° |
| 2026-04-30 19:00 | 52.31436 | 4.75470 | -1 ft | 7 kts | 175° |
| 2026-04-30 19:00 | 52.31387 | 4.75475 | -1 ft | 9 kts | 178° |
| 2026-04-30 19:00 | 52.31169 | 4.75499 | -1 ft | 14 kts | 174° |
| 2026-04-30 19:01 | 52.31072 | 4.75566 | -1 ft | 1 kts | 148° |
| 2026-04-30 19:01 | 52.31069 | 4.75569 | -1 ft | 0 kts | 148° |
| 2026-04-30 19:02 | 52.31067 | 4.75571 | -1 ft | 0 kts | 147° |
| 2026-04-30 19:02 | 52.31066 | 4.75572 | -1 ft | 0 kts | 147° |